Terminal Aerodrome Forecast
Issued by NWS Cleveland, OH

Home | Current Version | Previous Version | Graphics & Text | Print | Product List | Glossary On
Versions: 1 2 3 4 5 6 7 8 9 10 11 12 13 14 15 16 17 18
000
FTUS41 KCLE 261100
TAFERI
TAF
KERI 261131Z 2612/2712 05015KT 6SM -SN SCT025 OVC045
      TEMPO 2612/2614 3SM -SN BKN025
     FM261400 05015KT 3SM -SN SCT012 OVC025
      TEMPO 2614/2618 1SM -SN BR OVC012
     FM261800 05014KT 2SM -SN OVC020
     FM270300 04010KT 3SM -SN OVC015=

USA.gov is the U.S. government's official web portal to all federal, state and local government web resources and services.